sensor_id;sensor_type;location;lat;lon;timestamp;pressure;altitude;pressure_sealevel;temperature;humidity
53270;BME280;39159;45.634;9.420;2023-04-01T00:01:39;97766.06;;;6.32;100.00
53270;BME280;39159;45.634;9.420;2023-04-01T00:04:05;97769.78;;;6.36;100.00
53270;BME280;39159;45.634;9.420;2023-04-01T00:06:30;97759.09;;;6.40;100.00
53270;BME280;39159;45.634;9.420;2023-04-01T00:08:56;97765.66;;;6.39;100.00
53270;BME280;39159;45.634;9.420;2023-04-01T00:11:22;97769.88;;;6.31;100.00
53270;BME280;39159;45.634;9.420;2023-04-01T00:13:47;97764.47;;;6.31;100.00
53270;BME280;39159;45.634;9.420;2023-04-01T00:16:13;97758.75;;;6.33;100.00
53270;BME280;39159;45.634;9.420;2023-04-01T00:18:39;97762.44;;;6.37;100.00
53270;BME280;39159;45.634;9.420;2023-04-01T00:21:05;97752.28;;;6.42;100.00
53270;BME280;39159;45.634;9.420;2023-04-01T00:23:30;97751.66;;;6.46;100.00
53270;BME280;39159;45.634;9.420;2023-04-01T00:25:56;97754.56;;;6.49;100.00
53270;BME280;39159;45.634;9.420;2023-04-01T00:28:24;97754.56;;;6.49;100.00
53270;BME280;39159;45.634;9.420;2023-04-01T00:30:49;97757.06;;;6.46;100.00
53270;BME280;39159;45.634;9.420;2023-04-01T00:33:15;97764.09;;;6.24;100.00
53270;BME280;39159;45.634;9.420;2023-04-01T00:35:41;97763.94;;;6.20;100.00
53270;BME280;39159;45.634;9.420;2023-04-01T00:38:07;97751.97;;;6.21;100.00
53270;BME280;39159;45.634;9.420;2023-04-01T00:40:41;97744.84;;;6.26;100.00
53270;BME280;39159;45.634;9.420;2023-04-01T00:43:13;97742.75;;;6.22;100.00
53270;BME280;39159;45.634;9.420;2023-04-01T00:45:42;97738.94;;;6.23;100.00
53270;BME280;39159;45.634;9.420;2023-04-01T00:48:31;97730.31;;;6.21;100.00
53270;BME280;39159;45.634;9.420;2023-04-01T00:51:07;97730.59;;;6.20;100.00
53270;BME280;39159;45.634;9.420;2023-04-01T00:53:38;97727.41;;;6.18;100.00
53270;BME280;39159;45.634;9.420;2023-04-01T00:56:17;97729.66;;;6.16;100.00
53270;BME280;39159;45.634;9.420;2023-04-01T00:58:49;97730.31;;;6.21;100.00
53270;BME280;39159;45.634;9.420;2023-04-01T01:01:17;97736.50;;;6.22;100.00
53270;BME280;39159;45.634;9.420;2023-04-01T01:03:42;97729.94;;;6.14;100.00
53270;BME280;39159;45.634;9.420;2023-04-01T01:06:23;97721.53;;;6.16;100.00
53270;BME280;39159;45.634;9.420;2023-04-01T01:37:12;97721.59;;;6.33;100.00
53270;BME280;39159;45.634;9.420;2023-04-01T01:39:39;97723.34;;;6.29;100.00
53270;BME280;39159;45.634;9.420;2023-04-01T01:42:08;97725.38;;;6.23;100.00
53270;BME280;39159;45.634;9.420;2023-04-01T01:44:36;97732.66;;;6.14;100.00
53270;BME280;39159;45.634;9.420;2023-04-01T01:47:02;97723.34;;;6.07;100.00
53270;BME280;39159;45.634;9.420;2023-04-01T01:49:29;97714.75;;;5.91;100.00
53270;BME280;39159;45.634;9.420;2023-04-01T01:51:57;97714.09;;;5.85;100.00
53270;BME280;39159;45.634;9.420;2023-04-01T01:54:22;97710.34;;;5.72;100.00
53270;BME280;39159;45.634;9.420;2023-04-01T01:56:51;97708.69;;;5.63;100.00
53270;BME280;39159;45.634;9.420;2023-04-01T01:59:20;97714.25;;;5.66;100.00
53270;BME280;39159;45.634;9.420;2023-04-01T02:01:49;97729.09;;;5.69;100.00
53270;BME280;39159;45.634;9.420;2023-04-01T02:04:17;97728.28;;;5.68;100.00
53270;BME280;39159;45.634;9.420;2023-04-01T02:06:53;97724.16;;;5.71;100.00
53270;BME280;39159;45.634;9.420;2023-04-01T02:09:21;97733.41;;;5.70;100.00
53270;BME280;39159;45.634;9.420;2023-04-01T02:11:51;97731.41;;;5.61;100.00
53270;BME280;39159;45.634;9.420;2023-04-01T02:14:20;97733.25;;;5.52;100.00
53270;BME280;39159;45.634;9.420;2023-04-01T02:17:06;97739.50;;;5.39;100.00
53270;BME280;39159;45.634;9.420;2023-04-01T02:19:51;97739.19;;;5.27;100.00
53270;BME280;39159;45.634;9.420;2023-04-01T02:22:24;97737.72;;;5.21;100.00
53270;BME280;39159;45.634;9.420;2023-04-01T02:24:52;97719.88;;;5.19;100.00
53270;BME280;39159;45.634;9.420;2023-04-01T02:27:20;97733.91;;;5.22;100.00
53270;BME280;39159;45.634;9.420;2023-04-01T02:29:46;97730.13;;;5.23;100.00
53270;BME280;39159;45.634;9.420;2023-04-01T02:32:12;97727.28;;;5.28;100.00
53270;BME280;39159;45.634;9.420;2023-04-01T02:34:39;97721.47;;;5.34;100.00
53270;BME280;39159;45.634;9.420;2023-04-01T02:37:04;97732.38;;;5.43;100.00
53270;BME280;39159;45.634;9.420;2023-04-01T02:39:30;97726.84;;;5.48;100.00
53270;BME280;39159;45.634;9.420;2023-04-01T02:41:56;97737.66;;;5.48;100.00
53270;BME280;39159;45.634;9.420;2023-04-01T02:44:21;97739.88;;;5.46;100.00
53270;BME280;39159;45.634;9.420;2023-04-01T02:46:47;97742.47;;;5.51;100.00
53270;BME280;39159;45.634;9.420;2023-04-01T02:49:12;97742.03;;;5.58;100.00
53270;BME280;39159;45.634;9.420;2023-04-01T02:51:38;97750.47;;;5.56;100.00
53270;BME280;39159;45.634;9.420;2023-04-01T02:54:03;97743.16;;;5.57;100.00
53270;BME280;39159;45.634;9.420;2023-04-01T02:56:29;97765.00;;;5.60;100.00
53270;BME280;39159;45.634;9.420;2023-04-01T02:58:54;97753.69;;;5.58;100.00
53270;BME280;39159;45.634;9.420;2023-04-01T03:01:20;97755.41;;;5.54;100.00
53270;BME280;39159;45.634;9.420;2023-04-01T03:03:46;97756.91;;;5.47;100.00
53270;BME280;39159;45.634;9.420;2023-04-01T03:06:14;97754.34;;;5.28;100.00
53270;BME280;39159;45.634;9.420;2023-04-01T03:08:40;97756.53;;;5.26;100.00
53270;BME280;39159;45.634;9.420;2023-04-01T03:11:05;97761.75;;;5.22;100.00
53270;BME280;39159;45.634;9.420;2023-04-01T03:13:31;97762.38;;;5.19;100.00
53270;BME280;39159;45.634;9.420;2023-04-01T03:15:57;97760.44;;;5.19;100.00
53270;BME280;39159;45.634;9.420;2023-04-01T03:18:23;97759.25;;;5.12;100.00
53270;BME280;39159;45.634;9.420;2023-04-01T03:20:48;97763.97;;;5.06;100.00
53270;BME280;39159;45.634;9.420;2023-04-01T03:23:14;97761.75;;;5.08;100.00
53270;BME280;39159;45.634;9.420;2023-04-01T03:25:42;97777.41;;;5.11;100.00
53270;BME280;39159;45.634;9.420;2023-04-01T03:28:08;97771.38;;;5.14;100.00
53270;BME280;39159;45.634;9.420;2023-04-01T03:30:33;97773.59;;;5.12;100.00
53270;BME280;39159;45.634;9.420;2023-04-01T03:32:59;97777.28;;;5.16;100.00
53270;BME280;39159;45.634;9.420;2023-04-01T03:35:26;97779.28;;;5.11;100.00
53270;BME280;39159;45.634;9.420;2023-04-01T03:37:52;97770.66;;;5.09;100.00
53270;BME280;39159;45.634;9.420;2023-04-01T03:40:18;97775.38;;;5.03;100.00
53270;BME280;39159;45.634;9.420;2023-04-01T03:42:44;97767.06;;;4.99;100.00
53270;BME280;39159;45.634;9.420;2023-04-01T03:45:10;97791.41;;;4.99;100.00
53270;BME280;39159;45.634;9.420;2023-04-01T03:47:37;97787.50;;;4.92;100.00
53270;BME280;39159;45.634;9.420;2023-04-01T03:50:03;97787.50;;;4.92;100.00
53270;BME280;39159;45.634;9.420;2023-04-01T03:52:29;97794.59;;;4.88;100.00
53270;BME280;39159;45.634;9.420;2023-04-01T03:54:55;97803.91;;;4.82;100.00
53270;BME280;39159;45.634;9.420;2023-04-01T03:57:20;97794.19;;;4.81;100.00
53270;BME280;39159;45.634;9.420;2023-04-01T03:59:46;97801.41;;;4.71;100.00
53270;BME280;39159;45.634;9.420;2023-04-01T04:02:11;97794.97;;;4.67;100.00
53270;BME280;39159;45.634;9.420;2023-04-01T04:04:37;97799.28;;;4.68;100.00
53270;BME280;39159;45.634;9.420;2023-04-01T04:07:02;97788.47;;;4.68;100.00
53270;BME280;39159;45.634;9.420;2023-04-01T04:09:30;97790.09;;;4.69;100.00
53270;BME280;39159;45.634;9.420;2023-04-01T04:11:56;97781.38;;;4.72;100.00
53270;BME280;39159;45.634;9.420;2023-04-01T04:14:22;97789.88;;;4.80;100.00
53270;BME280;39159;45.634;9.420;2023-04-01T04:16:48;97784.59;;;4.88;100.00
53270;BME280;39159;45.634;9.420;2023-04-01T04:19:14;97784.59;;;5.02;100.00
53270;BME280;39159;45.634;9.420;2023-04-01T04:21:41;97777.19;;;5.08;100.00
53270;BME280;39159;45.634;9.420;2023-04-01T04:24:07;97769.06;;;5.22;100.00
53270;BME280;39159;45.634;9.420;2023-04-01T04:26:33;97772.66;;;5.31;100.00
53270;BME280;39159;45.634;9.420;2023-04-01T04:28:59;97771.75;;;5.35;100.00
53270;BME280;39159;45.634;9.420;2023-04-01T04:31:25;97771.97;;;5.39;100.00
53270;BME280;39159;45.634;9.420;2023-04-01T04:33:51;97770.34;;;5.38;100.00
53270;BME280;39159;45.634;9.420;2023-04-01T04:36:18;97780.06;;;5.39;100.00
53270;BME280;39159;45.634;9.420;2023-04-01T04:38:44;97771.66;;;5.40;100.00
53270;BME280;39159;45.634;9.420;2023-04-01T04:41:11;97774.38;;;5.40;100.00
53270;BME280;39159;45.634;9.420;2023-04-01T04:43:38;97780.56;;;5.41;100.00
53270;BME280;39159;45.634;9.420;2023-04-01T04:46:06;97784.69;;;5.38;100.00
53270;BME280;39159;45.634;9.420;2023-04-01T04:48:32;97781.19;;;5.24;100.00
53270;BME280;39159;45.634;9.420;2023-04-01T04:50:58;97782.47;;;5.27;100.00
53270;BME280;39159;45.634;9.420;2023-04-01T04:53:23;97790.50;;;5.32;100.00
53270;BME280;39159;45.634;9.420;2023-04-01T04:55:50;97791.50;;;5.36;100.00
53270;BME280;39159;45.634;9.420;2023-04-01T04:58:16;97786.00;;;5.41;100.00
53270;BME280;39159;45.634;9.420;2023-04-01T05:00:43;97788.28;;;5.48;100.00
53270;BME280;39159;45.634;9.420;2023-04-01T05:03:09;97795.16;;;5.68;100.00
53270;BME280;39159;45.634;9.420;2023-04-01T05:05:35;97801.84;;;5.84;100.00
53270;BME280;39159;45.634;9.420;2023-04-01T05:08:01;97806.66;;;5.87;100.00
53270;BME280;39159;45.634;9.420;2023-04-01T05:10:27;97803.75;;;5.84;100.00
53270;BME280;39159;45.634;9.420;2023-04-01T05:12:52;97803.16;;;5.73;100.00
53270;BME280;39159;45.634;9.420;2023-04-01T05:15:18;97806.78;;;5.68;100.00
53270;BME280;39159;45.634;9.420;2023-04-01T05:17:43;97815.81;;;5.64;100.00
53270;BME280;39159;45.634;9.420;2023-04-01T05:20:12;97809.91;;;5.61;100.00
53270;BME280;39159;45.634;9.420;2023-04-01T05:22:38;97809.44;;;5.46;100.00
53270;BME280;39159;45.634;9.420;2023-04-01T05:25:03;97810.94;;;5.38;100.00
53270;BME280;39159;45.634;9.420;2023-04-01T05:27:29;97806.63;;;5.37;100.00
53270;BME280;39159;45.634;9.420;2023-04-01T05:29:55;97807.94;;;5.39;100.00
53270;BME280;39159;45.634;9.420;2023-04-01T05:32:21;97807.25;;;5.34;100.00
53270;BME280;39159;45.634;9.420;2023-04-01T05:34:50;97807.81;;;5.45;100.00
53270;BME280;39159;45.634;9.420;2023-04-01T05:37:16;97815.22;;;5.53;100.00
53270;BME280;39159;45.634;9.420;2023-04-01T05:39:42;97822.16;;;5.59;100.00
53270;BME280;39159;45.634;9.420;2023-04-01T05:42:07;97822.66;;;5.61;100.00
53270;BME280;39159;45.634;9.420;2023-04-01T05:44:34;97816.53;;;5.55;100.00
53270;BME280;39159;45.634;9.420;2023-04-01T05:46:59;97815.53;;;5.51;100.00
53270;BME280;39159;45.634;9.420;2023-04-01T05:49:25;97808.13;;;5.43;100.00
53270;BME280;39159;45.634;9.420;2023-04-01T05:51:50;97818.44;;;5.41;100.00
53270;BME280;39159;45.634;9.420;2023-04-01T05:54:17;97814.53;;;5.47;100.00
53270;BME280;39159;45.634;9.420;2023-04-01T05:56:42;97821.75;;;5.52;100.00
53270;BME280;39159;45.634;9.420;2023-04-01T05:59:10;97811.53;;;5.49;100.00
53270;BME280;39159;45.634;9.420;2023-04-01T06:01:35;97819.34;;;5.50;100.00
53270;BME280;39159;45.634;9.420;2023-04-01T06:04:01;97813.22;;;5.58;100.00
53270;BME280;39159;45.634;9.420;2023-04-01T06:06:29;97823.72;;;5.74;100.00
53270;BME280;39159;45.634;9.420;2023-04-01T06:08:56;97829.78;;;5.93;100.00
53270;BME280;39159;45.634;9.420;2023-04-01T06:11:37;97825.97;;;6.08;100.00
53270;BME280;39159;45.634;9.420;2023-04-01T06:14:16;97829.44;;;6.22;100.00
53270;BME280;39159;45.634;9.420;2023-04-01T06:25:29;97840.91;;;6.96;100.00
53270;BME280;39159;45.634;9.420;2023-04-01T06:37:03;97840.56;;;7.77;100.00
53270;BME280;39159;45.634;9.420;2023-04-01T06:40:00;97841.09;;;7.97;100.00
53270;BME280;39159;45.634;9.420;2023-04-01T06:45:55;97849.88;;;8.37;100.00
53270;BME280;39159;45.634;9.420;2023-04-01T06:51:48;97847.78;;;8.86;100.00
53270;BME280;39159;45.634;9.420;2023-04-01T06:54:23;97841.47;;;9.12;100.00
53270;BME280;39159;45.634;9.420;2023-04-01T06:56:54;97845.25;;;9.28;100.00
53270;BME280;39159;45.634;9.420;2023-04-01T06:59:28;97850.94;;;9.44;100.00
53270;BME280;39159;45.634;9.420;2023-04-01T07:01:58;97852.19;;;9.55;100.00
53270;BME280;39159;45.634;9.420;2023-04-01T07:04:35;97856.00;;;9.63;100.00
53270;BME280;39159;45.634;9.420;2023-04-01T07:07:08;97868.06;;;9.83;100.00
53270;BME280;39159;45.634;9.420;2023-04-01T07:09:40;97857.06;;;10.01;100.00
53270;BME280;39159;45.634;9.420;2023-04-01T07:12:15;97863.91;;;10.07;100.00
53270;BME280;39159;45.634;9.420;2023-04-01T07:14:47;97872.63;;;10.21;100.00
53270;BME280;39159;45.634;9.420;2023-04-01T07:17:19;97853.41;;;10.17;100.00
53270;BME280;39159;45.634;9.420;2023-04-01T07:19:56;97866.16;;;10.05;100.00
53270;BME280;39159;45.634;9.420;2023-04-01T07:22:31;97875.81;;;10.02;100.00
53270;BME280;39159;45.634;9.420;2023-04-01T07:25:02;97855.13;;;10.01;100.00
53270;BME280;39159;45.634;9.420;2023-04-01T07:27:28;97862.38;;;9.97;100.00
53270;BME280;39159;45.634;9.420;2023-04-01T07:29:56;97870.75;;;9.92;100.00
53270;BME280;39159;45.634;9.420;2023-04-01T07:41:23;97865.94;;;10.61;100.00
53270;BME280;39159;45.634;9.420;2023-04-01T07:44:29;97862.00;;;11.16;100.00
53270;BME280;39159;45.634;9.420;2023-04-01T07:55:16;97864.22;;;12.09;95.11
53270;BME280;39159;45.634;9.420;2023-04-01T07:58:14;97857.06;;;12.44;95.04
53270;BME280;39159;45.634;9.420;2023-04-01T08:06:31;97855.19;;;13.65;82.57
53270;BME280;39159;45.634;9.420;2023-04-01T08:09:16;97855.00;;;13.89;78.14
53270;BME280;39159;45.634;9.420;2023-04-01T08:12:00;97865.66;;;14.10;70.95
53270;BME280;39159;45.634;9.420;2023-04-01T08:14:54;97876.47;;;14.39;73.89
53270;BME280;39159;45.634;9.420;2023-04-01T08:17:32;97879.75;;;14.64;72.78
53270;BME280;39159;45.634;9.420;2023-04-01T08:20:11;97884.44;;;14.83;66.81
53270;BME280;39159;45.634;9.420;2023-04-01T08:22:42;97877.47;;;15.08;65.43
53270;BME280;39159;45.634;9.420;2023-04-01T08:25:24;97879.69;;;15.22;69.87
53270;BME280;39159;45.634;9.420;2023-04-01T08:27:59;97873.13;;;15.50;71.73
53270;BME280;39159;45.634;9.420;2023-04-01T08:30:29;97872.69;;;15.71;65.91
53270;BME280;39159;45.634;9.420;2023-04-01T08:33:05;97870.38;;;15.73;65.79
53270;BME280;39159;45.634;9.420;2023-04-01T08:35:48;97872.25;;;15.69;66.36
53270;BME280;39159;45.634;9.420;2023-04-01T08:38:27;97868.53;;;15.81;65.20
53270;BME280;39159;45.634;9.420;2023-04-01T08:41:00;97859.22;;;15.89;62.43
53270;BME280;39159;45.634;9.420;2023-04-01T08:46:12;97873.78;;;16.16;59.13
53270;BME280;39159;45.634;9.420;2023-04-01T08:54:10;97863.16;;;16.45;61.27
53270;BME280;39159;45.634;9.420;2023-04-01T08:56:46;97856.81;;;16.71;60.27
53270;BME280;39159;45.634;9.420;2023-04-01T09:16:13;97866.56;;;17.36;56.00
53270;BME280;39159;45.634;9.420;2023-04-01T09:22:01;97873.66;;;17.78;51.75
53270;BME280;39159;45.634;9.420;2023-04-01T09:27:43;97873.06;;;17.99;51.59
53270;BME280;39159;45.634;9.420;2023-04-01T09:41:32;97869.16;;;18.80;45.95
53270;BME280;39159;45.634;9.420;2023-04-01T09:44:23;97878.19;;;18.70;42.40
53270;BME280;39159;45.634;9.420;2023-04-01T09:52:26;97865.78;;;19.62;39.42
53270;BME280;39159;45.634;9.420;2023-04-01T10:03:17;97862.66;;;19.93;39.11
53270;BME280;39159;45.634;9.420;2023-04-01T10:18:06;97855.91;;;20.04;36.47
53270;BME280;39159;45.634;9.420;2023-04-01T10:20:50;97862.25;;;19.87;35.94
53270;BME280;39159;45.634;9.420;2023-04-01T10:56:55;97831.75;;;21.74;29.80
53270;BME280;39159;45.634;9.420;2023-04-01T11:11:12;97820.97;;;22.25;28.90
53270;BME280;39159;45.634;9.420;2023-04-01T11:33:26;97810.56;;;22.67;27.20
53270;BME280;39159;45.634;9.420;2023-04-01T11:42:17;97804.31;;;22.21;25.37
53270;BME280;39159;45.634;9.420;2023-04-01T11:45:15;97807.22;;;22.07;25.43
53270;BME280;39159;45.634;9.420;2023-04-01T11:48:11;97802.34;;;22.56;24.41
53270;BME280;39159;45.634;9.420;2023-04-01T11:50:58;97796.69;;;22.32;23.18
53270;BME280;39159;45.634;9.420;2023-04-01T12:02:11;97797.53;;;22.60;22.11
53270;BME280;39159;45.634;9.420;2023-04-01T12:07:21;97794.00;;;22.87;22.90
53270;BME280;39159;45.634;9.420;2023-04-01T12:10:19;97788.94;;;23.09;22.21
53270;BME280;39159;45.634;9.420;2023-04-01T12:18:28;97788.66;;;22.00;22.56
53270;BME280;39159;45.634;9.420;2023-04-01T12:34:34;97783.75;;;22.49;22.75
53270;BME280;39159;45.634;9.420;2023-04-01T12:37:17;97780.22;;;22.45;22.71
53270;BME280;39159;45.634;9.420;2023-04-01T12:42:48;97771.22;;;22.34;21.57
53270;BME280;39159;45.634;9.420;2023-04-01T12:45:34;97763.31;;;22.63;21.05
53270;BME280;39159;45.634;9.420;2023-04-01T12:59:27;97750.38;;;22.49;20.33
53270;BME280;39159;45.634;9.420;2023-04-01T13:05:30;97743.63;;;22.81;18.43
53270;BME280;39159;45.634;9.420;2023-04-01T13:11:25;97747.16;;;21.82;21.87
53270;BME280;39159;45.634;9.420;2023-04-01T13:13:48;97747.72;;;22.04;20.38
53270;BME280;39159;45.634;9.420;2023-04-01T13:16:26;97735.97;;;22.27;20.22
53270;BME280;39159;45.634;9.420;2023-04-01T13:19:18;97737.06;;;22.37;20.52
53270;BME280;39159;45.634;9.420;2023-04-01T13:24:39;97728.47;;;22.24;19.90
53270;BME280;39159;45.634;9.420;2023-04-01T13:27:22;97731.38;;;22.75;19.23
53270;BME280;39159;45.634;9.420;2023-04-01T13:30:22;97741.31;;;23.03;19.07
53270;BME280;39159;45.634;9.420;2023-04-01T13:44:09;97717.16;;;22.04;20.89
53270;BME280;39159;45.634;9.420;2023-04-01T13:54:49;97717.16;;;22.04;21.94
53270;BME280;39159;45.634;9.420;2023-04-01T14:05:39;97702.59;;;21.97;23.15
53270;BME280;39159;45.634;9.420;2023-04-01T14:19:46;97703.97;;;21.78;21.99
53270;BME280;39159;45.634;9.420;2023-04-01T14:47:46;97674.44;;;21.11;24.14
53270;BME280;39159;45.634;9.420;2023-04-01T14:50:16;97663.94;;;20.92;23.85
53270;BME280;39159;45.634;9.420;2023-04-01T14:58:16;97651.91;;;20.57;23.48
53270;BME280;39159;45.634;9.420;2023-04-01T15:00:55;97652.31;;;20.52;23.15
53270;BME280;39159;45.634;9.420;2023-04-01T15:03:32;97658.22;;;20.61;24.01
53270;BME280;39159;45.634;9.420;2023-04-01T15:08:57;97649.06;;;20.68;24.75
53270;BME280;39159;45.634;9.420;2023-04-01T15:12:03;97649.84;;;20.65;23.43
53270;BME280;39159;45.634;9.420;2023-04-01T15:17:58;97641.31;;;20.34;24.10
53270;BME280;39159;45.634;9.420;2023-04-01T15:34:59;97625.34;;;19.86;25.73
53270;BME280;39159;45.634;9.420;2023-04-01T15:37:32;97620.59;;;19.83;24.56
53270;BME280;39159;45.634;9.420;2023-04-01T15:40:15;97618.69;;;19.62;24.07
53270;BME280;39159;45.634;9.420;2023-04-01T15:43:03;97619.91;;;19.54;24.74
53270;BME280;39159;45.634;9.420;2023-04-01T15:51:14;97610.84;;;19.42;24.67
53270;BME280;39159;45.634;9.420;2023-04-01T16:02:17;97611.63;;;19.50;24.41
53270;BME280;39159;45.634;9.420;2023-04-01T16:05:20;97603.31;;;19.50;24.50
53270;BME280;39159;45.634;9.420;2023-04-01T16:16:10;97599.66;;;19.78;25.39
53270;BME280;39159;45.634;9.420;2023-04-01T16:23:55;97602.81;;;19.80;25.93
53270;BME280;39159;45.634;9.420;2023-04-01T16:26:54;97604.03;;;19.76;26.27
53270;BME280;39159;45.634;9.420;2023-04-01T16:29:38;97604.47;;;19.63;26.77
53270;BME280;39159;45.634;9.420;2023-04-01T16:33:01;97601.00;;;19.34;25.37
53270;BME280;39159;45.634;9.420;2023-04-01T16:41:05;97595.06;;;19.36;26.34
53270;BME280;39159;45.634;9.420;2023-04-01T16:44:44;97599.38;;;19.44;26.16
53270;BME280;39159;45.634;9.420;2023-04-01T16:46:44;97599.34;;;19.51;26.68
53270;BME280;39159;45.634;9.420;2023-04-01T16:54:13;97601.34;;;19.47;27.17
53270;BME280;39159;45.634;9.420;2023-04-01T16:56:55;97595.88;;;19.25;24.49
53270;BME280;39159;45.634;9.420;2023-04-01T16:59:33;97605.41;;;18.99;25.27
53270;BME280;39159;45.634;9.420;2023-04-01T17:04:37;97591.97;;;18.62;25.01
53270;BME280;39159;45.634;9.420;2023-04-01T17:07:35;97599.03;;;18.38;25.17
53270;BME280;39159;45.634;9.420;2023-04-01T17:15:39;97609.63;;;17.96;25.84
53270;BME280;39159;45.634;9.420;2023-04-01T17:18:49;97604.06;;;17.82;25.85
53270;BME280;39159;45.634;9.420;2023-04-01T17:21:33;97607.13;;;17.66;25.84
53270;BME280;39159;45.634;9.420;2023-04-01T17:24:21;97607.47;;;17.57;26.39
53270;BME280;39159;45.634;9.420;2023-04-01T17:35:08;97607.69;;;17.27;26.63
53270;BME280;39159;45.634;9.420;2023-04-01T17:37:45;97612.41;;;17.19;26.30
53270;BME280;39159;45.634;9.420;2023-04-01T17:43:42;97612.69;;;17.07;26.43
53270;BME280;39159;45.634;9.420;2023-04-01T17:45:56;97609.50;;;16.98;26.54
53270;BME280;39159;45.634;9.420;2023-04-01T17:56:34;97617.91;;;16.71;26.68
53270;BME280;39159;45.634;9.420;2023-04-01T18:13:15;97612.38;;;16.23;27.98
53270;BME280;39159;45.634;9.420;2023-04-01T18:15:59;97617.78;;;16.12;28.02
53270;BME280;39159;45.634;9.420;2023-04-01T18:18:47;97617.66;;;16.02;28.06
53270;BME280;39159;45.634;9.420;2023-04-01T18:21:33;97625.44;;;15.92;28.44
53270;BME280;39159;45.634;9.420;2023-04-01T18:24:26;97620.63;;;15.86;28.13
53270;BME280;39159;45.634;9.420;2023-04-01T18:27:07;97619.44;;;15.83;28.39
53270;BME280;39159;45.634;9.420;2023-04-01T18:29:52;97624.47;;;15.78;28.41
53270;BME280;39159;45.634;9.420;2023-04-01T18:38:55;97628.94;;;15.63;29.21
53270;BME280;39159;45.634;9.420;2023-04-01T18:44:27;97638.75;;;15.60;29.77
53270;BME280;39159;45.634;9.420;2023-04-01T18:47:07;97633.25;;;15.60;30.59
53270;BME280;39159;45.634;9.420;2023-04-01T18:49:41;97644.63;;;15.59;30.35
53270;BME280;39159;45.634;9.420;2023-04-01T18:52:16;97642.19;;;15.53;31.51
53270;BME280;39159;45.634;9.420;2023-04-01T18:57:27;97647.16;;;15.41;32.46
53270;BME280;39159;45.634;9.420;2023-04-01T19:00:13;97649.00;;;15.33;32.23
53270;BME280;39159;45.634;9.420;2023-04-01T19:02:45;97659.47;;;15.24;32.13
53270;BME280;39159;45.634;9.420;2023-04-01T19:05:20;97658.09;;;15.10;31.87
53270;BME280;39159;45.634;9.420;2023-04-01T19:07:53;97659.47;;;14.97;31.90
53270;BME280;39159;45.634;9.420;2023-04-01T19:16:15;97670.75;;;14.69;32.29
53270;BME280;39159;45.634;9.420;2023-04-01T19:26:48;97683.09;;;14.56;33.72
53270;BME280;39159;45.634;9.420;2023-04-01T19:37:51;97693.97;;;14.09;34.48
53270;BME280;39159;45.634;9.420;2023-04-01T19:57:14;97700.66;;;13.38;37.37
53270;BME280;39159;45.634;9.420;2023-04-01T20:00:02;97693.97;;;13.35;38.51
53270;BME280;39159;45.634;9.420;2023-04-01T20:05:10;97700.50;;;13.15;39.55
53270;BME280;39159;45.634;9.420;2023-04-01T20:07:52;97696.16;;;13.14;38.80
53270;BME280;39159;45.634;9.420;2023-04-01T20:13:24;97703.53;;;13.10;37.51
53270;BME280;39159;45.634;9.420;2023-04-01T20:16:05;97709.88;;;13.14;37.45
53270;BME280;39159;45.634;9.420;2023-04-01T20:21:16;97717.66;;;13.27;37.15
53270;BME280;39159;45.634;9.420;2023-04-01T20:23:49;97712.69;;;13.33;36.80
53270;BME280;39159;45.634;9.420;2023-04-01T20:26:22;97715.44;;;13.33;36.61
53270;BME280;39159;45.634;9.420;2023-04-01T20:29:18;97717.41;;;13.33;37.10
53270;BME280;39159;45.634;9.420;2023-04-01T20:34:57;97720.91;;;13.17;37.87
53270;BME280;39159;45.634;9.420;2023-04-01T20:37:40;97719.69;;;13.15;37.70
53270;BME280;39159;45.634;9.420;2023-04-01T20:40:40;97725.94;;;13.15;37.96
53270;BME280;39159;45.634;9.420;2023-04-01T20:43:35;97734.78;;;13.09;37.96
53270;BME280;39159;45.634;9.420;2023-04-01T20:46:20;97735.13;;;13.07;38.11
53270;BME280;39159;45.634;9.420;2023-04-01T20:51:30;97740.19;;;13.05;38.27
53270;BME280;39159;45.634;9.420;2023-04-01T21:10:43;97740.59;;;12.59;40.12
53270;BME280;39159;45.634;9.420;2023-04-01T21:18:52;97741.94;;;12.65;40.28
53270;BME280;39159;45.634;9.420;2023-04-01T21:34:52;97733.38;;;12.23;42.68
53270;BME280;39159;45.634;9.420;2023-04-01T21:40:48;97736.00;;;12.19;43.36
53270;BME280;39159;45.634;9.420;2023-04-01T22:09:10;97773.91;;;12.05;45.78
53270;BME280;39159;45.634;9.420;2023-04-01T22:14:34;97772.22;;;11.88;47.12
53270;BME280;39159;45.634;9.420;2023-04-01T22:20:10;97771.53;;;11.79;46.38
53270;BME280;39159;45.634;9.420;2023-04-01T22:22:58;97773.69;;;11.73;46.64
53270;BME280;39159;45.634;9.420;2023-04-01T22:28:31;97775.88;;;11.55;46.71
53270;BME280;39159;45.634;9.420;2023-04-01T22:31:03;97776.31;;;11.57;46.52
53270;BME280;39159;45.634;9.420;2023-04-01T22:44:00;97773.59;;;11.57;45.64
53270;BME280;39159;45.634;9.420;2023-04-01T22:46:52;97779.31;;;11.52;46.00
53270;BME280;39159;45.634;9.420;2023-04-01T22:49:24;97781.69;;;11.54;45.86
53270;BME280;39159;45.634;9.420;2023-04-01T22:54:52;97778.59;;;11.55;45.60
53270;BME280;39159;45.634;9.420;2023-04-01T22:57:45;97778.28;;;11.57;45.47
53270;BME280;39159;45.634;9.420;2023-04-01T23:05:52;97790.00;;;11.57;44.74
53270;BME280;39159;45.634;9.420;2023-04-01T23:16:56;97823.66;;;11.25;45.97
53270;BME280;39159;45.634;9.420;2023-04-01T23:24:33;97823.41;;;10.93;46.81
53270;BME280;39159;45.634;9.420;2023-04-01T23:27:12;97821.91;;;10.83;46.88
53270;BME280;39159;45.634;9.420;2023-04-01T23:29:41;97828.03;;;10.80;46.68
53270;BME280;39159;45.634;9.420;2023-04-01T23:32:16;97819.13;;;10.71;46.83
53270;BME280;39159;45.634;9.420;2023-04-01T23:34:50;97813.88;;;10.66;45.98
53270;BME280;39159;45.634;9.420;2023-04-01T23:37:17;97821.94;;;10.62;46.64
53270;BME280;39159;45.634;9.420;2023-04-01T23:39:53;97812.16;;;10.61;45.98
53270;BME280;39159;45.634;9.420;2023-04-01T23:42:25;97812.16;;;10.61;45.92
53270;BME280;39159;45.634;9.420;2023-04-01T23:44:55;97819.56;;;10.61;45.70